Date,TemperatureHighF,TemperatureAvgF,TemperatureLowF,DewpointHighF,DewpointAvgF,DewpointLowF,HumidityHigh,HumidityAvg,HumidityLow,PressureMaxIn,PressureMinIn,WindSpeedMaxMPH,WindSpeedAvgMPH,GustSpeedMaxMPH,PrecipitationSumIn
2013-1-1,14.3,2.3,-7.5,2.9,-3.9,-12.3,83,75,57,30.67,30.23,11,1,11,0.00
2013-1-2,17.7,4.7,-7.9,6.5,-1.6,-12.7,85,75,58,30.73,30.55,14,1,14,0.00
2013-1-3,15.6,-0.1,-12.7,-0.4,-7.9,-17.9,82,70,47,30.92,30.73,10,1,10,0.00
2013-1-4,24.9,6.1,-7.0,7.1,-2.1,-11.5,85,71,45,30.91,30.61,7,0,7,0.00
2013-1-5,24.9,6.0,-8.1,5.4,-2.6,-12.6,86,69,42,30.89,30.64,8,0,8,0.00
2013-1-6,31.2,12.7,-3.1,5.8,-0.8,-10.3,78,58,26,30.87,30.42,9,1,9,0.00
2013-1-7,30.7,13.4,1.7,6.9,1.4,-4.5,80,61,32,30.45,30.26,9,0,9,0.00
2013-1-8,33.7,15.2,3.2,17.2,5.6,-4.1,84,67,45,30.70,30.27,16,1,16,0.00
2013-1-9,40.9,16.0,-0.9,16.8,6.6,-5.0,89,69,34,30.77,30.42,9,0,9,0.02
2013-1-10,38.2,20.2,9.0,11.2,5.9,0.5,76,56,26,30.42,29.67,15,1,15,0.00
2013-1-11,23.0,13.1,4.1,16.9,3.1,-7.5,84,65,37,29.95,29.39,28,3,28,0.00
2013-1-12,11.6,1.6,-8.6,-5.0,-9.4,-15.3,75,61,39,30.29,29.94,15,2,15,0.00
2013-1-13,7.4,-3.5,-15.0,-3.1,-11.0,-20.5,80,71,45,30.49,30.29,10,0,10,0.00
2013-1-14,4.7,-8.3,-18.4,-5.3,-15.3,-23.7,80,71,55,30.73,30.46,9,0,9,0.00
2013-1-15,4.9,-4.7,-20.7,0.3,-10.2,-26.1,83,77,66,31.05,30.73,5,0,5,0.00
2013-1-16,24.5,11.9,1.3,14.4,5.7,-2.7,85,76,59,31.04,30.73,10,0,10,0.01
2013-1-17,29.5,11.3,-3.4,14.5,3.9,-7.8,87,74,50,30.95,30.76,8,0,8,0.01
2013-1-18,36.4,17.6,0.1,10.3,3.1,-4.1,84,57,25,30.79,30.52,14,2,14,0.00
2013-1-19,36.9,20.8,7.8,8.7,4.0,-3.7,71,50,27,30.59,30.45,13,1,13,0.01
2013-1-20,37.0,17.6,0.3,6.9,1.8,-4.8,80,54,22,30.59,30.46,12,1,12,0.00
2013-1-21,35.7,19.7,1.7,9.9,3.2,-3.7,80,51,27,30.57,30.43,15,2,15,0.00
2013-1-22,43.4,21.9,2.1,3.7,-3.5,-13.5,72,40,9,30.60,30.48,19,2,19,0.00
2013-1-23,51.1,28.6,5.7,9.1,0.1,-6.5,58,33,11,30.60,30.35,23,2,23,0.00
2013-1-24,44.0,31.5,14.7,28.6,16.0,0.7,86,57,22,30.35,30.08,27,3,27,0.00
2013-1-25,42.7,33.9,28.3,29.5,27.5,25.3,90,78,57,30.25,30.06,15,1,15,0.01
2013-1-26,42.9,33.8,27.8,30.5,26.4,20.6,93,76,43,30.06,29.66,12,1,12,0.00
2013-1-27,40.6,31.2,18.9,29.0,22.5,11.4,94,72,45,29.77,29.65,17,2,17,0.10
2013-1-28,35.4,22.9,12.1,23.3,16.6,7.9,87,77,52,29.75,29.59,21,2,21,0.01
2013-1-29,16.3,8.8,1.3,7.9,2.4,-3.7,85,75,56,30.21,29.74,13,1,13,0.01
2013-1-30,19.5,12.9,1.0,13.7,5.8,-4.0,80,73,65,30.33,30.20,26,4,26,0.00
2013-1-31,28.0,22.1,18.3,17.8,15.5,12.9,88,76,57,30.41,30.26,19,2,19,0.01
2013-2-1,29.2,24.2,20.0,19.6,16.1,13.5,88,71,55,30.40,30.20,24,4,24,0.00
2013-2-2,35.7,20.4,2.9,16.1,10.2,-1.1,87,66,37,30.63,30.39,15,1,15,0.01
2013-2-3,41.4,21.4,4.4,9.3,4.8,0.3,85,55,19,30.54,30.19,20,2,20,0.03
2013-2-4,35.4,22.0,5.7,9.9,4.9,-0.8,78,51,27,30.28,30.17,18,2,18,0.00
2013-2-5,42.9,27.0,9.8,21.6,13.8,3.6,80,59,37,30.30,30.02,15,2,15,0.00
2013-2-6,36.6,24.8,11.3,24.5,17.1,7.8,88,74,47,30.16,29.92,16,1,16,0.00
2013-2-7,35.2,19.8,6.4,16.1,6.8,-0.1,85,60,22,30.34,30.16,15,2,15,0.02
2013-2-8,41.6,24.6,6.9,22.3,8.6,-0.8,82,55,23,30.27,29.77,17,2,17,0.00
2013-2-9,29.0,21.6,11.6,21.2,13.8,4.9,82,72,48,29.77,29.46,16,2,16,0.00
2013-2-10,22.0,14.3,6.9,12.7,7.6,2.6,85,74,58,30.13,29.69,16,2,16,0.00
2013-2-11,23.0,11.7,0.8,9.4,3.4,-4.5,84,70,48,30.33,30.11,11,1,11,0.04
2013-2-12,21.5,5.1,-11.5,3.6,-4.1,-16.4,83,67,43,30.63,30.33,14,1,14,0.00
2013-2-13,27.0,17.8,5.1,15.3,9.6,-0.2,83,71,52,30.64,30.30,17,2,17,0.00
2013-2-14,27.5,20.1,16.1,19.8,13.0,7.3,87,74,53,30.32,30.21,15,1,15,0.01
2013-2-15,22.0,18.0,14.5,14.6,10.7,6.3,86,73,56,30.58,30.31,21,2,21,0.00
2013-2-16,35.5,22.1,5.0,14.9,8.8,0.7,84,58,40,30.60,30.25,22,3,22,0.05
2013-2-17,41.4,26.3,14.0,13.8,5.0,-3.5,82,45,18,30.25,29.71,30,5,30,0.03
2013-2-18,22.3,15.0,4.3,11.1,3.3,-5.8,83,61,39,30.35,29.79,25,3,25,0.00
2013-2-19,36.1,17.6,-3.0,7.6,-1.5,-10.1,72,47,16,30.36,29.94,13,1,13,0.02
2013-2-20,36.1,23.7,13.8,19.9,10.3,3.4,87,58,28,29.94,29.53,11,1,11,0.00
2013-2-21,23.2,17.6,7.3,18.4,13.4,3.3,88,83,74,30.02,29.56,11,1,11,0.01
2013-2-22,22.2,11.5,-0.9,12.1,5.0,-5.1,87,75,58,30.27,30.02,14,1,14,0.03
2013-2-23,31.5,19.9,8.2,21.8,11.6,-0.8,89,70,51,30.24,29.76,17,3,17,0.01
2013-2-24,22.0,15.4,6.7,14.7,10.7,1.8,88,82,67,30.24,29.73,11,1,11,0.01
2013-2-25,26.2,11.6,0.4,11.3,3.0,-6.2,83,69,50,30.42,30.18,17,2,17,0.05
2013-2-26,19.7,11.9,3.2,12.0,6.9,-0.8,86,80,69,30.40,30.05,15,1,15,0.00
2013-2-27,22.6,11.6,-0.3,9.5,2.5,-6.0,83,67,48,30.60,30.40,13,2,13,0.02
2013-2-28,26.2,12.8,-5.7,14.1,3.7,-10.8,83,68,41,30.70,30.58,16,2,16,0.01
2013-3-1,32.7,24.5,17.2,23.2,18.3,12.2,86,77,60,30.63,30.49,13,1,13,0.04
2013-3-2,41.8,32.0,24.4,24.4,21.0,17.3,85,65,39,30.56,30.14,14,2,14,0.03
2013-3-3,43.2,33.2,19.2,27.6,20.6,12.9,91,62,38,30.14,29.71,30,4,30,0.00
2013-3-4,33.9,21.7,2.0,27.0,16.3,-4.3,91,80,59,30.34,29.65,19,2,19,0.13
2013-3-5,39.2,14.7,-10.9,11.7,1.2,-15.5,86,59,19,30.70,30.34,16,2,16,0.10
2013-3-6,48.7,30.2,6.2,14.4,7.2,0.5,80,44,17,30.50,29.98,22,2,22,0.01
2013-3-7,50.9,36.6,22.2,13.4,8.4,-2.2,60,34,13,29.98,29.79,18,2,18,0.00
2013-3-8,47.0,31.9,19.7,25.3,16.6,7.4,85,55,25,29.92,29.58,13,2,18,0.00
2013-3-9,30.6,25.2,15.5,26.5,20.1,9.7,91,81,68,30.08,29.51,19,2,19,0.10
2013-3-10,28.9,19.1,6.1,16.2,10.5,1.8,86,70,52,30.40,30.07,16,2,16,0.10
2013-3-11,33.7,23.5,9.3,23.6,15.8,5.3,88,73,58,30.40,30.14,23,3,23,0.03
2013-3-12,39.0,31.0,25.2,23.6,21.6,18.8,87,69,50,30.30,30.19,19,2,19,0.13
2013-3-13,44.7,33.4,21.6,24.3,19.6,16.3,82,59,35,30.40,30.28,14,2,14,0.01
2013-3-14,51.6,38.0,23.7,21.7,17.3,11.2,73,47,21,30.42,30.22,18,2,18,0.00
2013-3-15,55.0,42.3,28.2,21.9,18.7,15.9,69,41,23,30.22,29.83,21,3,21,0.00
2013-3-16,40.2,32.0,25.0,32.5,26.7,20.3,92,81,53,29.87,29.70,13,1,13,0.06
2013-3-17,35.2,26.4,18.5,26.3,17.6,5.3,92,71,38,29.88,29.63,32,4,32,0.01
2013-3-18,30.7,23.4,17.1,20.0,11.9,5.7,85,62,42,30.09,29.88,29,4,29,0.00
2013-3-19,35.7,27.2,15.9,16.1,2.2,-13.7,70,37,12,30.34,30.05,24,3,24,0.02
2013-3-20,46.1,25.3,5.8,27.7,11.6,-3.4,92,60,24,30.36,29.98,26,2,26,0.01
2013-3-21,36.4,26.6,18.2,29.0,22.5,13.5,92,85,65,29.98,29.56,17,2,17,0.22
2013-3-22,33.0,20.3,6.8,19.5,11.0,3.1,88,70,33,29.93,29.75,19,1,19,0.13
2013-3-23,17.6,13.7,7.2,13.7,8.4,2.8,88,79,60,30.27,29.80,11,1,11,0.00
2013-3-24,17.7,7.0,-3.0,9.5,0.4,-7.7,85,74,57,30.51,30.27,13,1,13,0.01
2013-3-25,26.5,9.2,-11.6,6.2,-2.7,-16.3,83,61,28,30.66,30.51,13,2,13,0.03
2013-3-26,41.7,25.1,2.0,24.8,13.0,-3.6,82,62,38,30.58,30.12,18,2,21,0.13
2013-3-27,31.2,28.8,27.2,25.2,23.8,22.3,90,81,75,30.12,30.01,8,1,8,0.00
2013-3-29,34.5,32.8,31.4,30.9,30.1,29.1,92,90,84,30.19,30.14,10,1,10,0.01
2013-3-30,47.2,35.9,26.8,29.6,26.7,20.6,91,72,36,30.18,30.03,23,2,23,0.05
2013-3-31,49.7,34.8,18.2,24.2,15.8,5.3,90,53,17,30.18,30.03,17,2,17,0.01
2013-4-1,48.4,35.4,23.6,29.9,22.5,15.0,88,61,36,30.07,29.82,15,2,15,0.00
2013-4-2,43.7,30.2,24.0,29.2,25.0,18.7,93,82,47,30.06,29.85,14,1,14,0.05
2013-4-3,42.7,32.1,19.3,29.6,22.4,16.6,93,70,41,30.23,30.06,14,2,14,0.15
2013-4-4,51.7,37.9,19.3,25.0,20.1,15.0,87,53,25,30.27,30.03,17,2,17,0.00
2013-4-5,56.2,39.7,26.1,30.9,22.3,16.8,90,55,23,30.03,29.67,19,2,19,0.00
2013-4-6,47.1,36.6,25.0,29.1,24.7,19.0,88,65,35,29.89,29.82,24,2,24,0.11
2013-4-7,43.7,35.3,28.5,30.6,25.6,21.4,88,68,42,29.85,29.67,23,3,23,0.04
2013-4-8,51.7,38.3,27.3,31.7,23.2,13.1,86,59,22,29.71,29.33,23,4,23,0.01
2013-4-9,35.2,27.1,15.0,27.6,17.5,10.0,87,68,47,29.87,29.35,19,3,19,0.07
2013-4-10,29.4,18.9,8.7,16.2,9.4,3.6,85,68,50,30.17,29.87,17,2,17,0.01
2013-4-11,38.2,28.8,19.3,29.1,21.6,11.1,87,74,57,30.12,29.88,21,4,21,0.04
2013-4-12,43.7,32.2,26.7,29.9,21.6,11.3,91,67,27,29.96,29.85,20,2,20,0.10
2013-4-13,51.6,35.5,18.3,30.7,17.8,12.0,92,53,25,29.95,29.41,30,4,30,0.01
2013-4-14,31.9,25.5,23.0,29.5,23.2,20.7,92,91,90,29.50,29.44,0,0,0,0.00
2013-6-28,64.3,59.1,55.9,39.9,38.7,37.6,52,47,40,29.85,29.78,5,0,5,0.00
2013-6-29,76.7,60.6,50.4,47.2,41.6,33.1,71,52,24,29.88,29.75,19,2,19,0.01
2013-6-30,74.3,58.4,45.6,49.7,42.5,34.8,88,59,29,29.93,29.77,24,2,24,0.11
2013-7-1,72.5,56.9,38.2,46.7,39.8,32.1,92,59,25,30.01,29.90,15,1,15,0.00
2013-7-2,73.3,56.8,40.0,49.7,40.3,28.1,87,59,20,29.96,29.80,16,1,16,0.08
2013-7-3,75.3,56.3,38.8,45.2,39.2,30.8,91,59,20,29.87,29.71,18,2,18,0.00
2013-7-4,77.2,59.6,38.4,45.7,39.3,30.3,91,53,19,29.84,29.66,13,1,16,0.00
2013-7-5,71.5,60.1,48.3,48.5,44.8,39.8,80,59,39,29.68,29.54,20,2,20,0.01
2013-7-6,74.0,61.3,49.7,50.2,45.9,40.0,85,60,31,29.71,29.60,17,2,17,0.05
2013-7-7,76.8,61.0,46.8,53.1,44.8,37.3,91,60,27,29.79,29.64,13,1,13,0.16
2013-7-8,75.8,59.9,45.2,52.7,44.4,34.6,94,62,25,29.91,29.78,15,2,15,0.18
2013-7-9,77.2,61.3,45.5,45.8,40.8,35.0,79,50,23,29.96,29.86,15,1,15,0.00
2013-7-10,78.8,64.2,48.3,55.7,42.2,34.1,72,48,20,29.94,29.71,13,2,13,0.04
2013-7-11,83.6,66.6,50.2,48.5,41.7,30.0,76,46,16,29.77,29.53,22,2,22,0.00
2013-7-12,78.7,59.4,51.5,54.2,48.2,43.2,89,69,34,29.79,29.58,11,1,11,0.34
2013-7-13,75.4,58.9,48.2,56.7,49.8,45.4,94,75,40,29.89,29.75,13,1,13,0.31
2013-7-14,73.8,58.0,45.6,56.2,49.1,43.6,95,74,45,29.93,29.83,11,1,11,0.01
2013-7-15,72.7,58.3,47.0,54.2,48.3,43.1,87,71,43,29.88,29.73,10,1,10,0.02
2013-7-16,77.3,59.8,40.3,48.6,43.4,37.9,94,60,26,29.90,29.77,15,2,15,0.00
2013-7-17,79.0,59.1,43.6,55.2,46.9,40.0,89,67,31,29.92,29.80,10,1,10,0.00
2013-7-18,78.0,57.3,43.2,51.1,45.2,40.8,93,68,34,29.96,29.81,18,1,18,0.00
2013-10-5,36.7,27.8,20.5,20.5,17.9,16.3,84,67,47,30.55,30.45,6,0,6,0.06
2013-10-6,51.9,33.1,16.6,30.7,23.2,13.5,90,70,41,30.59,30.40,11,1,11,0.00
2013-10-7,64.3,43.2,23.3,29.0,22.0,13.0,91,53,14,30.41,29.96,14,2,16,0.01
2013-10-8,65.6,46.2,29.7,28.5,22.8,8.0,78,47,11,29.96,29.60,16,2,16,0.00
2013-10-9,58.7,44.5,31.7,30.0,24.1,18.1,75,49,21,29.76,29.65,19,3,19,0.00
2013-10-10,48.7,38.9,30.9,35.8,28.1,21.7,91,67,44,29.75,29.39,27,3,27,0.00
2013-10-11,41.5,36.2,33.0,29.4,26.5,24.3,76,68,57,30.03,29.55,34,4,34,0.01
2013-10-12,50.7,36.8,25.6,25.0,22.3,16.9,77,58,28,30.14,29.98,15,2,15,0.00
2013-10-13,58.4,40.8,23.7,35.3,24.3,17.6,90,58,24,30.10,29.79,16,2,16,0.01
2013-10-14,37.9,32.6,29.2,32.4,28.5,25.5,93,85,62,30.11,29.68,20,2,20,0.00
2013-10-15,34.4,29.4,26.9,27.7,25.4,23.2,90,85,71,30.17,30.10,9,1,9,0.00
2013-10-16,38.6,30.1,24.8,24.4,21.2,16.1,89,71,48,30.19,30.11,14,2,14,0.00
2013-10-17,42.4,31.1,19.3,25.4,16.4,8.2,86,58,26,30.19,30.00,17,2,17,0.00
2013-10-18,32.8,27.2,21.6,25.9,18.5,12.7,91,71,45,30.30,29.97,17,2,17,0.01
2013-10-19,43.9,33.0,20.2,22.9,17.8,12.7,80,55,35,30.32,30.07,20,3,20,0.00
2013-10-20,42.6,33.3,25.4,28.8,21.8,17.6,81,64,43,30.08,29.89,16,2,16,0.00
2013-10-21,43.8,31.8,20.8,25.2,21.3,17.2,89,67,37,30.31,30.07,15,1,15,0.00
2013-10-22,52.7,35.7,21.2,25.8,21.7,17.1,87,61,29,30.37,30.20,16,1,16,0.00
2013-10-23,56.1,38.3,25.2,26.7,21.4,14.7,84,56,21,30.23,30.09,11,2,11,0.00
2013-10-24,57.9,38.6,22.5,23.9,20.0,14.2,82,53,19,30.23,30.09,14,1,14,0.00
2013-10-25,55.9,39.2,26.6,26.0,22.2,19.4,76,54,26,30.21,30.06,13,1,13,0.00
2013-10-26,54.4,37.8,25.7,27.1,21.5,13.8,82,56,21,30.29,30.17,12,1,12,0.00
2013-10-27,51.9,36.6,22.7,26.5,20.8,17.8,82,57,27,30.20,29.87,18,1,18,0.00
2013-10-28,51.7,38.3,27.7,27.4,19.7,14.2,74,50,25,29.90,29.68,20,2,20,0.00
2013-10-29,47.9,35.6,27.1,29.2,20.1,11.2,91,57,25,29.79,29.67,23,2,23,0.00
2013-10-30,38.6,30.0,24.8,29.1,21.0,17.3,92,70,46,29.91,29.70,16,2,16,0.01
2013-10-31,30.3,26.6,23.2,21.8,19.3,16.3,87,74,58,30.10,29.91,19,3,19,0.00
2013-11-1,34.1,29.0,22.9,26.1,22.0,14.9,89,75,52,30.38,30.07,20,3,20,0.01
2013-11-2,51.4,31.6,12.5,19.8,13.6,8.7,87,53,18,30.45,29.98,23,2,23,0.04
2013-11-3,49.4,35.1,19.5,27.1,17.0,10.4,87,51,23,29.98,29.51,26,2,26,0.00
2013-11-4,39.9,26.1,9.0,24.7,15.7,5.2,89,67,40,29.94,29.79,16,1,16,0.08
2013-11-5,28.6,19.8,8.3,24.4,11.0,2.8,85,69,48,30.44,29.88,15,2,15,0.01
2013-11-6,30.2,21.9,7.8,18.9,12.7,2.6,81,68,56,30.65,30.44,20,3,20,0.00
2013-11-7,47.2,32.4,14.2,22.4,17.3,10.4,88,57,35,30.65,30.11,18,2,18,0.01
2013-11-8,48.9,41.6,31.0,19.3,15.1,8.9,56,34,27,30.12,29.77,28,6,28,0.00
2013-11-9,50.2,34.8,24.6,20.9,17.8,15.0,71,52,28,30.26,29.99,21,2,21,0.00
2013-11-10,50.4,34.3,21.2,20.6,17.7,14.9,80,55,25,30.35,30.23,19,1,19,0.00
2013-11-11,49.1,34.2,22.9,24.5,18.2,15.9,77,55,29,30.49,30.31,15,2,15,0.00
2013-11-12,51.4,33.0,20.6,21.7,16.1,12.2,82,55,21,30.62,30.49,10,1,10,0.00
2013-11-13,49.7,34.4,17.8,19.1,13.5,7.0,74,46,18,30.53,30.09,17,2,17,0.00
2013-11-14,43.6,34.4,23.4,25.7,17.2,9.5,82,52,26,30.10,29.77,16,2,16,0.00
2013-11-15,43.6,32.3,23.2,27.1,16.0,5.5,91,53,28,29.77,29.50,23,3,23,0.00
2013-11-16,37.1,28.6,24.7,25.7,20.7,15.5,90,73,50,29.59,29.38,35,4,44,0.11
2013-11-17,34.7,28.5,24.0,20.4,18.4,16.1,81,66,51,30.23,29.55,35,5,35,0.01
2013-11-18,45.2,29.1,18.7,19.1,14.6,5.8,77,58,20,30.38,30.18,25,3,25,0.05
2013-11-19,43.6,30.1,15.0,28.2,19.6,9.5,86,66,39,30.19,29.88,25,2,25,0.02
2013-11-20,39.2,33.5,29.2,27.1,24.3,22.4,89,70,53,29.89,29.75,13,1,13,0.01
2013-11-21,36.4,28.4,16.3,30.9,25.1,13.0,92,87,78,30.32,29.81,11,1,11,0.05
2013-11-22,28.7,22.3,16.2,23.7,18.1,13.0,89,84,75,30.59,30.32,12,1,12,0.00
2013-11-23,34.4,26.4,21.7,23.4,18.6,14.9,87,72,58,30.57,30.26,16,2,16,0.01
2013-11-24,33.3,28.0,23.3,27.6,23.4,18.1,90,83,75,30.27,29.98,17,2,17,0.00
2013-11-25,33.6,25.6,13.5,22.3,17.9,10.1,88,73,56,30.39,30.04,10,1,10,0.00
2013-11-26,35.4,24.2,16.2,18.1,14.4,10.0,79,67,44,30.51,30.39,17,2,17,0.01
2013-11-27,42.5,23.2,7.2,21.0,13.6,3.6,89,69,35,30.55,30.33,12,1,12,0.01
2013-11-28,47.3,28.0,18.3,21.6,15.5,11.2,78,62,23,30.38,30.16,15,2,15,0.00
2013-11-29,39.9,27.4,11.6,19.1,14.1,7.5,86,60,37,30.38,30.27,18,2,18,0.00
2013-11-30,39.0,30.5,19.0,15.0,10.8,4.9,66,46,26,30.40,30.30,17,3,17,0.00
2013-12-1,37.5,27.6,13.8,22.8,15.4,7.5,78,61,44,30.39,30.15,32,4,32,0.00
2013-12-2,36.5,32.1,28.3,25.3,22.5,18.4,88,68,49,30.15,29.66,26,4,26,0.01
2013-12-3,33.8,30.1,27.7,27.9,24.3,17.6,92,80,52,29.66,29.28,15,1,15,0.00
2013-12-4,29.3,10.5,-3.4,25.9,6.4,-7.8,91,83,77,30.10,29.19,8,0,8,0.00
2013-12-5,11.5,-2.9,-16.1,1.5,-9.3,-21.0,82,74,59,30.40,30.10,12,1,12,0.00
2013-12-6,9.6,-0.6,-15.2,0.9,-7.7,-19.8,83,72,59,30.58,30.39,13,1,13,0.00
2013-12-7,20.4,10.4,0.9,10.3,4.7,-5.4,87,78,58,30.53,29.87,12,0,12,0.00
2013-12-8,12.1,8.4,2.4,8.8,1.9,-6.4,87,74,60,30.18,29.75,18,2,18,0.00
2013-12-9,6.0,0.8,-6.4,-5.0,-8.1,-12.1,77,66,47,30.80,30.17,22,3,22,0.00
2013-12-10,26.3,12.7,-10.0,13.1,4.3,-14.6,85,70,53,30.84,30.49,31,4,31,0.01
2013-12-11,29.6,16.3,0.9,11.5,5.2,-3.1,86,63,39,30.74,30.50,18,2,24,0.02
2013-12-12,35.1,15.9,0.0,13.3,4.9,-4.8,81,64,35,30.79,30.39,12,1,12,0.05
2013-12-13,31.3,17.6,4.4,14.7,8.3,0.5,87,68,42,30.41,30.13,15,1,15,0.02
2013-12-14,24.7,16.9,8.7,13.4,9.6,3.8,83,73,59,30.66,30.39,12,1,12,0.01
2013-12-15,35.9,27.2,18.1,19.5,15.3,11.9,79,62,42,30.64,30.42,19,2,19,0.03
2013-12-16,40.9,27.7,14.6,20.2,13.7,9.0,83,58,34,30.52,30.41,17,2,17,0.01
2013-12-17,42.4,26.0,10.5,17.5,12.8,6.9,87,60,31,30.59,30.38,18,2,18,0.02
2013-12-18,46.1,31.1,16.3,13.7,11.0,8.2,73,46,22,30.38,29.81,28,3,28,0.00
2013-12-19,44.1,32.2,20.4,24.5,15.9,12.7,77,53,29,29.81,29.47,23,2,23,0.00
2013-12-20,28.0,21.7,8.9,22.8,17.0,5.2,90,82,64,29.78,29.60,16,1,16,0.03
2013-12-21,21.7,12.0,1.3,15.6,7.3,-2.6,86,81,74,30.15,29.74,11,1,11,0.00
2013-12-22,20.8,15.7,9.4,12.8,8.3,3.9,82,73,57,30.39,30.15,22,2,22,0.00
2013-12-23,27.6,23.1,16.9,17.7,14.7,11.9,84,70,60,30.56,30.37,23,4,23,0.00
2013-12-24,30.2,21.2,-0.6,23.0,15.2,-4.8,88,78,65,30.53,30.13,24,3,24,0.00
2013-12-25,25.5,7.8,-4.6,9.9,0.3,-8.7,85,73,48,30.93,30.53,13,1,13,0.01
2013-12-26,33.3,13.9,-1.4,15.8,5.7,-5.3,88,72,42,30.93,30.76,11,1,11,0.00
2013-12-27,33.9,17.0,3.7,19.6,10.6,0.2,90,77,53,30.80,30.51,8,0,8,0.01
2013-12-28,31.3,19.4,5.0,21.3,13.8,1.5,90,79,64,30.51,30.19,9,0,9,0.00
2013-12-29,24.3,17.6,8.7,18.0,9.6,3.0,88,72,44,30.31,30.20,19,1,19,0.00
2013-12-30,28.4,21.3,10.7,12.8,9.9,5.0,81,62,46,30.48,30.28,20,2,20,0.00
2013-12-31,33.2,28.3,13.9,22.3,18.5,7.1,79,67,53,30.39,30.05,27,3,27,0.00
2014-1-1,28.6,21.9,6.9,23.0,15.7,2.8,88,77,62,30.45,29.95,22,3,22,0.00
2014-1-2,33.9,19.9,4.1,13.5,8.5,-0.3,86,63,39,30.66,30.38,15,2,15,0.00